createdAt,value
2023-02-19T00:03:50.099Z,2.70
2023-02-19T00:09:21.184Z,2.67
2023-02-19T00:14:47.248Z,2.72
2023-02-19T00:20:14.057Z,3.08
2023-02-19T00:25:38.571Z,3.50
2023-02-19T00:31:06.945Z,3.15
2023-02-19T00:36:33.325Z,3.20
2023-02-19T00:42:02.758Z,4.63
2023-02-19T00:47:32.003Z,4.65
2023-02-19T00:52:57.346Z,4.00
2023-02-19T00:58:26.795Z,3.30
2023-02-19T01:03:50.506Z,3.83
2023-02-19T01:09:19.488Z,4.30
2023-02-19T01:14:45.611Z,2.88
2023-02-19T01:20:15.633Z,3.22
2023-02-19T01:25:43.399Z,2.75
2023-02-19T01:31:15.309Z,2.33
2023-02-19T01:36:44.527Z,2.33
2023-02-19T01:42:17.690Z,2.22
2023-02-19T01:47:46.631Z,2.72
2023-02-19T01:53:19.837Z,2.92
2023-02-19T01:58:50.212Z,2.53
2023-02-19T02:04:20.423Z,2.53
2023-02-19T02:10:08.463Z,3.10
2023-02-19T02:15:47.585Z,3.65
2023-02-19T02:21:36.588Z,2.70
2023-02-19T02:27:18.945Z,3.60
2023-02-19T02:32:55.652Z,3.40
2023-02-19T02:38:21.935Z,3.60
2023-02-19T02:43:50.636Z,3.15
2023-02-19T02:49:20.957Z,2.83
2023-02-19T02:55:04.954Z,3.45
2023-02-19T03:00:51.992Z,3.63
2023-02-19T03:06:23.447Z,4.75
2023-02-19T03:12:12.898Z,4.50
2023-02-19T03:18:05.972Z,3.70
2023-02-19T03:23:56.020Z,3.20
2023-02-19T03:29:27.371Z,3.47
2023-02-19T03:35:06.474Z,3.50
2023-02-19T03:40:39.715Z,2.90
2023-02-19T03:46:15.765Z,2.60
2023-02-19T03:51:45.323Z,2.75
2023-02-19T03:57:19.936Z,2.97
2023-02-19T04:02:55.128Z,2.85
2023-02-19T04:08:25.440Z,2.60
2023-02-19T04:14:07.582Z,3.20
2023-02-19T04:19:35.252Z,3.65
2023-02-19T04:24:59.289Z,3.20
2023-02-19T04:30:30.015Z,3.67
2023-02-19T04:35:54.090Z,2.85
2023-02-19T04:41:18.656Z,3.00
2023-02-19T04:46:44.487Z,3.15
2023-02-19T04:52:06.798Z,2.30
2023-02-19T04:57:35.996Z,4.20
2023-02-19T05:03:06.260Z,4.45
2023-02-19T05:08:34.808Z,3.33
2023-02-19T05:14:03.971Z,4.90
2023-02-19T05:19:31.554Z,8.82
2023-02-19T05:25:00.808Z,6.47
2023-02-19T05:30:29.898Z,5.68
2023-02-19T05:35:56.071Z,5.47
2023-02-19T05:41:21.546Z,4.72
2023-02-19T05:46:45.658Z,4.38
2023-02-19T05:52:11.245Z,5.03
2023-02-19T05:57:34.121Z,4.97
2023-02-19T06:03:00.614Z,4.93
2023-02-19T06:08:25.697Z,5.45
2023-02-19T06:13:50.614Z,6.07
2023-02-19T06:19:14.109Z,5.95
2023-02-19T06:24:39.538Z,5.63
2023-02-19T06:30:02.360Z,5.32
2023-02-19T06:35:25.665Z,5.10
2023-02-19T06:40:50.664Z,6.07
2023-02-19T06:46:14.767Z,6.00
2023-02-19T06:51:38.122Z,7.70
2023-02-19T06:57:03.302Z,7.65
2023-02-19T07:02:27.035Z,8.05
2023-02-19T07:07:50.924Z,7.47
2023-02-19T07:13:15.436Z,8.20
2023-02-19T07:18:39.976Z,6.20
2023-02-19T07:24:03.653Z,5.95
2023-02-19T07:29:28.197Z,8.30
2023-02-19T07:34:51.651Z,6.22
2023-02-19T07:40:15.885Z,6.72
2023-02-19T07:45:40.987Z,6.72
2023-02-19T07:51:06.016Z,4.90
2023-02-19T07:56:29.871Z,4.88
2023-02-19T08:02:12.595Z,3.85
2023-02-19T08:07:37.857Z,3.50
2023-02-19T08:13:22.368Z,4.85
2023-02-19T08:18:48.448Z,5.25
2023-02-19T08:24:11.994Z,4.25
2023-02-19T08:29:35.699Z,4.70
2023-02-19T08:35:00.432Z,5.85
2023-02-19T08:40:24.265Z,4.95
2023-02-19T08:45:48.534Z,3.83
2023-02-19T08:51:13.611Z,2.88
2023-02-19T08:56:38.380Z,4.30
2023-02-19T09:02:02.133Z,4.57
2023-02-19T09:07:28.106Z,3.67
2023-02-19T09:12:51.489Z,3.72
2023-02-19T09:18:14.398Z,3.10
2023-02-19T09:23:39.801Z,2.88
2023-02-19T09:29:03.043Z,2.70
2023-02-19T09:34:27.050Z,2.85
2023-02-19T09:39:51.706Z,4.05
2023-02-19T09:45:21.863Z,2.85
2023-02-19T09:50:48.902Z,4.15
2023-02-19T09:56:14.455Z,3.03
2023-02-19T10:01:40.698Z,3.13
2023-02-19T10:07:04.728Z,4.05
2023-02-19T10:12:31.739Z,3.13
2023-02-19T10:17:55.405Z,3.67
2023-02-19T10:23:19.426Z,3.85
2023-02-19T10:28:44.532Z,4.53
2023-02-19T10:34:20.629Z,2.45
2023-02-19T10:39:46.796Z,2.38
2023-02-19T10:45:20.009Z,4.80
2023-02-19T10:50:45.812Z,3.53
2023-02-19T10:56:11.749Z,4.18
2023-02-19T11:01:36.602Z,5.45
2023-02-19T11:06:59.884Z,3.22
2023-02-19T11:12:28.210Z,3.90
2023-02-19T11:18:06.122Z,4.50
2023-02-19T11:23:32.101Z,5.05
2023-02-19T11:28:58.535Z,5.45
2023-02-19T11:34:35.148Z,3.35
2023-02-19T11:39:58.410Z,4.32
2023-02-19T11:45:35.574Z,2.90
2023-02-19T11:51:21.408Z,3.00
2023-02-19T11:57:03.494Z,4.05
2023-02-19T12:02:49.597Z,4.78
2023-02-19T12:08:49.854Z,2.53
2023-02-19T12:14:49.327Z,2.70
2023-02-19T12:20:31.951Z,4.32
2023-02-19T12:26:09.767Z,4.70
2023-02-19T12:32:06.207Z,2.58
2023-02-19T12:37:45.808Z,3.42
2023-02-19T12:43:18.617Z,3.38
2023-02-19T12:48:56.255Z,2.33
2023-02-19T12:54:30.494Z,2.63
2023-02-19T13:00:07.829Z,3.30
2023-02-19T13:05:45.624Z,4.10
2023-02-19T13:11:17.560Z,4.32
2023-02-19T13:16:49.568Z,4.57
2023-02-19T13:22:38.264Z,5.47
2023-02-19T13:28:16.606Z,5.53
2023-02-19T13:33:55.371Z,3.80
2023-02-19T13:39:24.758Z,3.00
2023-02-19T13:44:55.844Z,4.35
2023-02-19T13:50:25.395Z,3.80
2023-02-19T13:55:54.585Z,3.70
2023-02-19T14:01:20.944Z,3.05
2023-02-19T14:07:18.788Z,2.47
2023-02-19T14:12:48.855Z,2.90
2023-02-19T14:18:43.433Z,5.50
2023-02-19T14:24:14.982Z,6.95
2023-02-19T14:29:45.929Z,4.22
2023-02-19T14:35:19.917Z,4.35
2023-02-19T14:40:47.598Z,4.50
2023-02-19T14:46:20.734Z,5.95
2023-02-19T14:51:49.542Z,4.72
2023-02-19T14:57:20.894Z,4.18
2023-02-19T15:02:52.612Z,7.53
2023-02-19T15:08:23.002Z,6.30
2023-02-19T15:13:52.226Z,5.47
2023-02-19T15:19:22.020Z,7.47
2023-02-19T15:24:49.898Z,8.10
2023-02-19T15:30:23.431Z,11.25
2023-02-19T15:35:52.520Z,8.48
2023-02-19T15:41:23.062Z,9.40
2023-02-19T15:46:49.751Z,11.43
2023-02-19T15:52:27.984Z,8.45
2023-02-19T15:58:04.047Z,11.27
2023-02-19T16:03:33.810Z,11.63
2023-02-19T16:09:06.522Z,10.27
2023-02-19T16:14:37.121Z,11.50
2023-02-19T16:20:05.617Z,13.35
2023-02-19T16:25:39.395Z,12.77
2023-02-19T16:31:12.521Z,15.18
2023-02-19T16:36:41.629Z,17.55
2023-02-19T16:42:16.437Z,17.38
2023-02-19T16:47:48.199Z,16.70
2023-02-19T16:53:20.412Z,11.90
2023-02-19T16:58:51.101Z,8.95
2023-02-19T17:04:17.176Z,7.97
2023-02-19T17:09:46.881Z,9.38
2023-02-19T17:20:51.778Z,10.10
2023-02-19T17:31:45.278Z,9.77
2023-02-19T17:37:14.519Z,11.57
2023-02-19T17:42:37.684Z,9.82
2023-02-19T17:48:03.039Z,10.00
2023-02-19T17:53:26.653Z,7.72
2023-02-19T17:58:57.274Z,7.82
2023-02-19T18:04:28.424Z,7.95
2023-02-19T18:09:51.660Z,7.22
2023-02-19T18:15:19.227Z,7.88
2023-02-19T18:20:49.378Z,7.07
2023-02-19T18:26:20.620Z,6.90
2023-02-19T18:31:45.009Z,8.15
2023-02-19T18:37:15.204Z,6.90
2023-02-19T18:42:43.447Z,9.82
2023-02-19T18:48:11.483Z,10.38
2023-02-19T18:53:43.527Z,13.27
2023-02-19T18:59:06.853Z,7.85
2023-02-19T19:04:36.865Z,7.45
2023-02-19T19:10:09.352Z,6.70
2023-02-19T19:15:40.059Z,7.60
2023-02-19T19:21:09.927Z,8.23
2023-02-19T19:26:36.632Z,6.80
2023-02-19T19:32:00.596Z,6.60
2023-02-19T19:37:29.871Z,5.88
2023-02-19T19:42:59.886Z,5.50
2023-02-19T19:48:23.430Z,6.60
2023-02-19T19:53:52.846Z,5.90
2023-02-19T19:59:23.548Z,5.97
2023-02-19T20:04:52.952Z,5.93
2023-02-19T20:10:22.429Z,6.20
2023-02-19T20:15:52.389Z,5.68
2023-02-19T20:21:22.190Z,6.28
2023-02-19T20:26:45.820Z,6.93
2023-02-19T20:32:18.683Z,7.57
2023-02-19T20:37:48.029Z,8.93
2023-02-19T20:43:11.989Z,8.65
2023-02-19T20:48:41.621Z,11.50
2023-02-19T20:54:06.359Z,11.90
2023-02-19T20:59:36.164Z,14.18
2023-02-19T21:05:01.540Z,15.60
2023-02-19T21:10:31.550Z,9.85
2023-02-19T21:21:27.037Z,7.85
2023-02-19T21:26:53.811Z,7.28
2023-02-19T21:32:17.806Z,7.75
2023-02-19T21:37:44.604Z,8.57
2023-02-19T21:43:13.872Z,8.38
2023-02-19T21:48:43.068Z,6.87
2023-02-19T21:54:17.561Z,8.20
2023-02-19T21:59:43.430Z,8.00
2023-02-19T22:05:11.831Z,7.22
2023-02-19T22:10:40.916Z,7.13
2023-02-19T22:16:05.409Z,6.88
2023-02-19T22:21:34.778Z,7.60
2023-02-19T22:26:59.897Z,7.55
2023-02-19T22:32:23.341Z,7.68
2023-02-19T22:37:47.455Z,8.20
2023-02-19T22:43:17.738Z,9.32
2023-02-19T22:48:42.162Z,8.40
2023-02-19T22:54:11.337Z,7.22
2023-02-19T22:59:41.570Z,8.38
2023-02-19T23:05:10.611Z,8.57
2023-02-19T23:10:40.951Z,6.75
2023-02-19T23:21:36.029Z,7.53
2023-02-19T23:27:00.676Z,7.10
2023-02-19T23:32:25.757Z,6.88
2023-02-19T23:37:49.024Z,5.57
2023-02-19T23:43:12.566Z,5.60
2023-02-19T23:48:38.523Z,5.82
2023-02-19T23:54:01.837Z,6.45
2023-02-19T23:59:30.571Z,7.68
